sensor_id;sensor_type;location;lat;lon;timestamp;pressure;altitude;pressure_sealevel;temperature;humidity
75923;BME280;64602;47.542;19.090;2023-03-01T07:03:15;101376.31;;;5.15;60.73
75923;BME280;64602;47.542;19.090;2023-03-01T07:08:18;101370.38;;;5.20;60.53
75923;BME280;64602;47.542;19.090;2023-03-01T07:13:20;101367.94;;;5.25;60.38
75923;BME280;64602;47.542;19.090;2023-03-01T07:18:22;101359.22;;;5.23;60.32
75923;BME280;64602;47.542;19.090;2023-03-01T07:23:24;101360.16;;;5.37;60.20
75923;BME280;64602;47.542;19.090;2023-03-01T07:28:27;101348.78;;;5.41;59.88
75923;BME280;64602;47.542;19.090;2023-03-01T07:33:29;101353.31;;;5.62;59.29
75923;BME280;64602;47.542;19.090;2023-03-01T07:38:32;101356.72;;;5.77;58.86
75923;BME280;64602;47.542;19.090;2023-03-01T07:43:34;101360.44;;;5.98;58.45
75923;BME280;64602;47.542;19.090;2023-03-01T07:48:36;101352.81;;;6.08;57.69
75923;BME280;64602;47.542;19.090;2023-03-01T07:53:38;101352.22;;;6.13;57.46
75923;BME280;64602;47.542;19.090;2023-03-01T07:58:42;101352.28;;;6.26;57.20
75923;BME280;64602;47.542;19.090;2023-03-01T08:03:44;101335.66;;;6.64;56.51
75923;BME280;64602;47.542;19.090;2023-03-01T08:08:47;101342.75;;;6.78;55.90
75923;BME280;64602;47.542;19.090;2023-03-01T08:13:49;101329.84;;;6.67;55.61
75923;BME280;64602;47.542;19.090;2023-03-01T08:18:54;101339.19;;;6.64;55.63
75923;BME280;64602;47.542;19.090;2023-03-01T08:23:58;101335.53;;;6.92;55.36
75923;BME280;64602;47.542;19.090;2023-03-01T08:29:00;101319.34;;;6.99;54.75
75923;BME280;64602;47.542;19.090;2023-03-01T08:34:12;101317.31;;;7.21;53.82
75923;BME280;64602;47.542;19.090;2023-03-01T08:39:16;101317.09;;;7.49;52.85
75923;BME280;64602;47.542;19.090;2023-03-01T08:44:20;101321.44;;;7.70;52.11
75923;BME280;64602;47.542;19.090;2023-03-01T08:49:23;101310.41;;;7.78;51.13
75923;BME280;64602;47.542;19.090;2023-03-01T08:54:25;101305.88;;;8.30;50.98
75923;BME280;64602;47.542;19.090;2023-03-01T08:59:27;101315.34;;;8.60;49.96
75923;BME280;64602;47.542;19.090;2023-03-01T09:04:31;101298.25;;;8.97;48.71
75923;BME280;64602;47.542;19.090;2023-03-01T09:09:35;101300.72;;;9.74;47.46
75923;BME280;64602;47.542;19.090;2023-03-01T09:14:37;101306.41;;;9.91;46.65
75923;BME280;64602;47.542;19.090;2023-03-01T09:19:40;101284.72;;;10.28;46.28
75923;BME280;64602;47.542;19.090;2023-03-01T09:24:44;101287.56;;;10.33;45.62
75923;BME280;64602;47.542;19.090;2023-03-01T09:29:46;101294.03;;;10.14;45.36
75923;BME280;64602;47.542;19.090;2023-03-01T09:34:49;101272.75;;;10.66;44.81
75923;BME280;64602;47.542;19.090;2023-03-01T09:40:06;101268.63;;;11.29;43.80
75923;BME280;64602;47.542;19.090;2023-03-01T09:45:22;101270.03;;;11.20;42.72
75923;BME280;64602;47.542;19.090;2023-03-01T09:50:29;101255.62;;;11.54;43.07
75923;BME280;64602;47.542;19.090;2023-03-01T09:55:41;101241.16;;;12.01;42.25
75923;BME280;64602;47.542;19.090;2023-03-01T10:00:47;101253.44;;;12.44;41.27
75923;BME280;64602;47.542;19.090;2023-03-01T10:06:09;101240.75;;;12.21;41.19
75923;BME280;64602;47.542;19.090;2023-03-01T10:11:37;101242.41;;;12.51;41.60
75923;BME280;64602;47.542;19.090;2023-03-01T10:16:48;101240.09;;;13.39;39.82
75923;BME280;64602;47.542;19.090;2023-03-01T10:21:52;101228.41;;;13.60;39.28
75923;BME280;64602;47.542;19.090;2023-03-01T10:27:02;101216.94;;;13.24;39.26
75923;BME280;64602;47.542;19.090;2023-03-01T10:32:06;101216.09;;;13.58;39.50
75923;BME280;64602;47.542;19.090;2023-03-01T10:37:13;101208.12;;;14.22;38.23
75923;BME280;64602;47.542;19.090;2023-03-01T10:42:25;101203.44;;;14.67;36.13
75923;BME280;64602;47.542;19.090;2023-03-01T10:47:28;101184.62;;;15.50;34.80
75923;BME280;64602;47.542;19.090;2023-03-01T10:52:36;101183.66;;;16.91;33.02
75923;BME280;64602;47.542;19.090;2023-03-01T10:57:39;101181.97;;;16.75;33.18
75923;BME280;64602;47.542;19.090;2023-03-01T11:03:02;101176.31;;;18.71;29.51
75923;BME280;64602;47.542;19.090;2023-03-01T11:08:05;101167.47;;;21.27;25.04
75923;BME280;64602;47.542;19.090;2023-03-01T11:13:15;101169.16;;;26.60;19.94
75923;BME280;64602;47.542;19.090;2023-03-01T11:18:22;101157.66;;;26.95;19.25
75923;BME280;64602;47.542;19.090;2023-03-01T11:23:37;101159.28;;;25.70;20.10
75923;BME280;64602;47.542;19.090;2023-03-01T11:28:54;101167.00;;;31.49;15.82
75923;BME280;64602;47.542;19.090;2023-03-01T11:34:13;101154.81;;;33.81;13.58
75923;BME280;64602;47.542;19.090;2023-03-01T11:39:37;101138.56;;;31.77;14.95
75923;BME280;64602;47.542;19.090;2023-03-01T11:44:43;101134.00;;;28.68;17.49
75923;BME280;64602;47.542;19.090;2023-03-01T12:00:49;101097.66;;;19.53;27.25
75923;BME280;64602;47.542;19.090;2023-03-01T12:06:12;101092.59;;;19.60;27.69
75923;BME280;64602;47.542;19.090;2023-03-01T12:16:33;101083.84;;;16.77;31.06
75923;BME280;64602;47.542;19.090;2023-03-01T13:57:51;101005.94;;;32.18;14.75
75923;BME280;64602;47.542;19.090;2023-03-01T14:08:21;100976.69;;;26.62;19.38
75923;BME280;64602;47.542;19.090;2023-03-01T14:19:18;100979.25;;;29.21;16.93
75923;BME280;64602;47.542;19.090;2023-03-01T14:24:38;100946.31;;;21.88;24.36
75923;BME280;64602;47.542;19.090;2023-03-01T14:29:42;100933.25;;;18.48;29.22
75923;BME280;64602;47.542;19.090;2023-03-01T14:34:46;100931.50;;;17.25;31.31
75923;BME280;64602;47.542;19.090;2023-03-01T14:39:49;100921.97;;;18.74;29.74
75923;BME280;64602;47.542;19.090;2023-03-01T14:44:54;100918.06;;;23.11;23.55
75923;BME280;64602;47.542;19.090;2023-03-01T14:55:09;100910.19;;;22.87;24.53
75923;BME280;64602;47.542;19.090;2023-03-01T15:05:32;100923.50;;;26.18;20.42
75923;BME280;64602;47.542;19.090;2023-03-01T15:10:36;100912.28;;;26.51;19.94
75923;BME280;64602;47.542;19.090;2023-03-01T15:15:43;100914.13;;;26.47;20.02
75923;BME280;64602;47.542;19.090;2023-03-01T15:20:47;100912.91;;;25.99;20.38
75923;BME280;64602;47.542;19.090;2023-03-01T15:25:52;100914.63;;;25.07;21.34
75923;BME280;64602;47.542;19.090;2023-03-01T15:31:04;100914.66;;;24.39;22.00
75923;BME280;64602;47.542;19.090;2023-03-01T15:36:41;100889.25;;;23.12;23.42
75923;BME280;64602;47.542;19.090;2023-03-01T15:41:48;100901.41;;;21.60;25.10
75923;BME280;64602;47.542;19.090;2023-03-01T15:46:50;100893.09;;;20.04;27.11
75923;BME280;64602;47.542;19.090;2023-03-01T15:51:54;100903.03;;;18.48;29.50
75923;BME280;64602;47.542;19.090;2023-03-01T15:57:01;100898.53;;;17.36;31.20
75923;BME280;64602;47.542;19.090;2023-03-01T16:02:09;100879.84;;;15.15;34.89
75923;BME280;64602;47.542;19.090;2023-03-01T16:07:14;100891.97;;;14.19;37.24
75923;BME280;64602;47.542;19.090;2023-03-01T16:12:16;100901.56;;;13.25;39.38
75923;BME280;64602;47.542;19.090;2023-03-01T16:17:18;100890.16;;;12.57;40.65
75923;BME280;64602;47.542;19.090;2023-03-01T16:22:20;100894.97;;;12.11;42.35
75923;BME280;64602;47.542;19.090;2023-03-01T16:27:27;100906.69;;;11.77;43.48
75923;BME280;64602;47.542;19.090;2023-03-01T16:32:29;100900.72;;;11.47;43.92
75923;BME280;64602;47.542;19.090;2023-03-01T16:37:33;100899.62;;;11.14;44.41
75923;BME280;64602;47.542;19.090;2023-03-01T16:42:35;100915.31;;;10.83;45.63
75923;BME280;64602;47.542;19.090;2023-03-01T16:47:37;100921.25;;;10.57;46.47
75923;BME280;64602;47.542;19.090;2023-03-01T16:52:39;100912.19;;;10.16;47.53
75923;BME280;64602;47.542;19.090;2023-03-01T16:57:42;100930.12;;;9.93;48.45
75923;BME280;64602;47.542;19.090;2023-03-01T17:02:44;100931.63;;;9.77;49.15
75923;BME280;64602;47.542;19.090;2023-03-01T17:07:46;100931.47;;;9.60;49.71
75923;BME280;64602;47.542;19.090;2023-03-01T17:12:48;100924.78;;;9.33;50.39
75923;BME280;64602;47.542;19.090;2023-03-01T17:17:51;100940.19;;;9.20;51.28
75923;BME280;64602;47.542;19.090;2023-03-01T17:22:53;100945.75;;;9.07;51.76
75923;BME280;64602;47.542;19.090;2023-03-01T17:27:56;100940.06;;;8.97;52.17
75923;BME280;64602;47.542;19.090;2023-03-01T17:32:58;100928.87;;;8.75;52.66
75923;BME280;64602;47.542;19.090;2023-03-01T17:38:01;100950.75;;;8.73;53.19
75923;BME280;64602;47.542;19.090;2023-03-01T17:43:03;100923.31;;;8.51;53.34
75923;BME280;64602;47.542;19.090;2023-03-01T17:48:06;100944.28;;;8.56;53.46
75923;BME280;64602;47.542;19.090;2023-03-01T17:53:10;100927.19;;;8.37;54.07
75923;BME280;64602;47.542;19.090;2023-03-01T17:58:13;100925.91;;;8.21;54.54
75923;BME280;64602;47.542;19.090;2023-03-01T18:03:16;100927.06;;;8.07;55.06
75923;BME280;64602;47.542;19.090;2023-03-01T18:08:18;100942.47;;;8.06;55.84
75923;BME280;64602;47.542;19.090;2023-03-01T18:13:20;100936.19;;;7.87;56.24
75923;BME280;64602;47.542;19.090;2023-03-01T18:18:22;100943.13;;;7.77;56.74
75923;BME280;64602;47.542;19.090;2023-03-01T18:23:24;100941.09;;;7.72;56.67
75923;BME280;64602;47.542;19.090;2023-03-01T18:28:28;100929.22;;;7.73;55.82
75923;BME280;64602;47.542;19.090;2023-03-01T18:33:31;100933.53;;;7.56;56.39
75923;BME280;64602;47.542;19.090;2023-03-01T18:38:33;100928.00;;;7.44;57.19
75923;BME280;64602;47.542;19.090;2023-03-01T18:43:35;100942.97;;;7.40;57.22
75923;BME280;64602;47.542;19.090;2023-03-01T18:48:37;100928.56;;;7.21;57.48
75923;BME280;64602;47.542;19.090;2023-03-01T18:53:40;100932.72;;;7.17;58.30
75923;BME280;64602;47.542;19.090;2023-03-01T18:58:43;100919.53;;;7.02;58.49
75923;BME280;64602;47.542;19.090;2023-03-01T19:03:46;100911.84;;;6.99;58.91
75923;BME280;64602;47.542;19.090;2023-03-01T19:08:48;100925.00;;;6.82;59.41
75923;BME280;64602;47.542;19.090;2023-03-01T19:13:51;100926.03;;;6.81;59.50
75923;BME280;64602;47.542;19.090;2023-03-01T19:18:57;100915.50;;;6.73;59.77
75923;BME280;64602;47.542;19.090;2023-03-01T19:24:00;100915.16;;;6.56;60.43
75923;BME280;64602;47.542;19.090;2023-03-01T19:29:03;100933.38;;;6.60;60.78
75923;BME280;64602;47.542;19.090;2023-03-01T19:34:07;100916.66;;;6.38;61.26
75923;BME280;64602;47.542;19.090;2023-03-01T19:39:13;100925.34;;;6.40;61.82
75923;BME280;64602;47.542;19.090;2023-03-01T19:44:15;100906.50;;;6.20;62.38
75923;BME280;64602;47.542;19.090;2023-03-01T19:49:17;100926.81;;;6.16;63.11
75923;BME280;64602;47.542;19.090;2023-03-01T19:54:19;100922.91;;;6.06;63.16
75923;BME280;64602;47.542;19.090;2023-03-01T19:59:22;100918.16;;;5.94;63.74
75923;BME280;64602;47.542;19.090;2023-03-01T20:04:29;100945.31;;;5.99;64.24
75923;BME280;64602;47.542;19.090;2023-03-01T20:09:31;100937.25;;;5.99;64.22
75923;BME280;64602;47.542;19.090;2023-03-01T20:14:33;100942.59;;;5.93;64.78
75923;BME280;64602;47.542;19.090;2023-03-01T20:19:35;100939.91;;;5.73;65.42
75923;BME280;64602;47.542;19.090;2023-03-01T20:24:37;100947.56;;;5.76;65.56
75923;BME280;64602;47.542;19.090;2023-03-01T20:29:39;100941.53;;;5.54;65.96
75923;BME280;64602;47.542;19.090;2023-03-01T20:34:42;100942.94;;;5.43;66.20
75923;BME280;64602;47.542;19.090;2023-03-01T20:39:44;100952.69;;;5.38;66.45
75923;BME280;64602;47.542;19.090;2023-03-01T20:44:46;100966.75;;;5.33;66.93
75923;BME280;64602;47.542;19.090;2023-03-01T20:49:51;100963.41;;;5.18;67.25
75923;BME280;64602;47.542;19.090;2023-03-01T20:54:54;100984.69;;;5.19;67.34
75923;BME280;64602;47.542;19.090;2023-03-01T20:59:56;100974.09;;;4.98;67.77
75923;BME280;64602;47.542;19.090;2023-03-01T21:04:58;100990.25;;;5.04;67.78
75923;BME280;64602;47.542;19.090;2023-03-01T21:10:00;100996.44;;;4.98;68.30
75923;BME280;64602;47.542;19.090;2023-03-01T21:15:02;100996.59;;;4.90;68.55
